sensor_id;sensor_type;location;lat;lon;timestamp;temperature;humidity
27671;DHT22;15077;49.704;9.908;2024-02-23T00:01:56;12.50;62.10
27671;DHT22;15077;49.704;9.908;2024-02-23T00:04:22;12.50;62.20
27671;DHT22;15077;49.704;9.908;2024-02-23T00:06:48;12.40;62.10
27671;DHT22;15077;49.704;9.908;2024-02-23T00:09:14;12.40;61.90
27671;DHT22;15077;49.704;9.908;2024-02-23T00:11:40;12.30;62.10
27671;DHT22;15077;49.704;9.908;2024-02-23T00:14:10;12.30;62.40
27671;DHT22;15077;49.704;9.908;2024-02-23T00:16:39;12.30;62.50
27671;DHT22;15077;49.704;9.908;2024-02-23T00:19:09;12.30;63.10
27671;DHT22;15077;49.704;9.908;2024-02-23T00:21:38;12.20;62.30
27671;DHT22;15077;49.704;9.908;2024-02-23T00:24:04;12.20;62.70
27671;DHT22;15077;49.704;9.908;2024-02-23T00:26:30;12.20;62.10
27671;DHT22;15077;49.704;9.908;2024-02-23T00:28:56;12.20;61.10
27671;DHT22;15077;49.704;9.908;2024-02-23T00:31:22;12.20;62.20
27671;DHT22;15077;49.704;9.908;2024-02-23T00:33:47;12.10;61.50
27671;DHT22;15077;49.704;9.908;2024-02-23T00:36:13;12.10;61.20
27671;DHT22;15077;49.704;9.908;2024-02-23T00:38:39;12.10;61.50
27671;DHT22;15077;49.704;9.908;2024-02-23T00:41:05;12.00;61.70
27671;DHT22;15077;49.704;9.908;2024-02-23T00:43:41;12.00;61.30
27671;DHT22;15077;49.704;9.908;2024-02-23T00:46:07;12.00;61.80
27671;DHT22;15077;49.704;9.908;2024-02-23T00:48:34;11.90;62.00
27671;DHT22;15077;49.704;9.908;2024-02-23T00:51:01;11.90;62.30
27671;DHT22;15077;49.704;9.908;2024-02-23T00:53:28;11.90;62.10
27671;DHT22;15077;49.704;9.908;2024-02-23T00:55:54;11.90;62.10
27671;DHT22;15077;49.704;9.908;2024-02-23T00:58:19;11.90;62.00
27671;DHT22;15077;49.704;9.908;2024-02-23T01:00:45;11.80;61.80
27671;DHT22;15077;49.704;9.908;2024-02-23T01:03:11;11.80;61.80
27671;DHT22;15077;49.704;9.908;2024-02-23T01:05:36;11.80;61.60
27671;DHT22;15077;49.704;9.908;2024-02-23T01:08:03;11.70;61.90
27671;DHT22;15077;49.704;9.908;2024-02-23T01:10:29;11.70;61.40
27671;DHT22;15077;49.704;9.908;2024-02-23T01:12:55;11.70;62.10
27671;DHT22;15077;49.704;9.908;2024-02-23T01:15:20;11.70;62.20
27671;DHT22;15077;49.704;9.908;2024-02-23T01:17:46;11.60;61.40
27671;DHT22;15077;49.704;9.908;2024-02-23T01:20:12;11.60;61.60
27671;DHT22;15077;49.704;9.908;2024-02-23T01:22:38;11.50;61.70
27671;DHT22;15077;49.704;9.908;2024-02-23T01:25:04;11.50;61.60
27671;DHT22;15077;49.704;9.908;2024-02-23T01:27:30;11.50;61.60
27671;DHT22;15077;49.704;9.908;2024-02-23T01:29:55;11.50;61.50
27671;DHT22;15077;49.704;9.908;2024-02-23T01:32:21;11.40;61.30
27671;DHT22;15077;49.704;9.908;2024-02-23T01:34:47;11.40;61.70
27671;DHT22;15077;49.704;9.908;2024-02-23T01:37:13;11.40;61.90
27671;DHT22;15077;49.704;9.908;2024-02-23T01:39:38;11.40;62.40
27671;DHT22;15077;49.704;9.908;2024-02-23T01:42:04;11.40;62.40
27671;DHT22;15077;49.704;9.908;2024-02-23T01:44:30;11.40;62.50
27671;DHT22;15077;49.704;9.908;2024-02-23T01:46:55;11.40;62.60
27671;DHT22;15077;49.704;9.908;2024-02-23T01:49:21;11.40;62.90
27671;DHT22;15077;49.704;9.908;2024-02-23T01:51:48;11.40;63.00
27671;DHT22;15077;49.704;9.908;2024-02-23T01:54:15;11.40;62.90
27671;DHT22;15077;49.704;9.908;2024-02-23T01:56:41;11.30;63.10
27671;DHT22;15077;49.704;9.908;2024-02-23T01:59:07;11.30;63.20
27671;DHT22;15077;49.704;9.908;2024-02-23T02:01:35;11.30;62.90
27671;DHT22;15077;49.704;9.908;2024-02-23T02:04:01;11.20;63.10
27671;DHT22;15077;49.704;9.908;2024-02-23T02:06:27;11.20;63.20
27671;DHT22;15077;49.704;9.908;2024-02-23T02:08:53;11.10;63.30
27671;DHT22;15077;49.704;9.908;2024-02-23T02:11:19;11.10;63.20
27671;DHT22;15077;49.704;9.908;2024-02-23T02:13:45;11.10;63.20
27671;DHT22;15077;49.704;9.908;2024-02-23T02:16:11;11.00;63.40
27671;DHT22;15077;49.704;9.908;2024-02-23T02:18:37;11.00;64.10
27671;DHT22;15077;49.704;9.908;2024-02-23T02:21:02;10.90;63.70
27671;DHT22;15077;49.704;9.908;2024-02-23T02:23:28;10.90;63.80
27671;DHT22;15077;49.704;9.908;2024-02-23T02:25:55;10.90;63.60
27671;DHT22;15077;49.704;9.908;2024-02-23T02:28:22;10.80;63.70
27671;DHT22;15077;49.704;9.908;2024-02-23T02:30:49;10.80;63.60
27671;DHT22;15077;49.704;9.908;2024-02-23T02:33:16;10.80;63.70
27671;DHT22;15077;49.704;9.908;2024-02-23T02:35:41;10.80;63.60
27671;DHT22;15077;49.704;9.908;2024-02-23T02:38:07;10.80;63.80
27671;DHT22;15077;49.704;9.908;2024-02-23T02:40:33;10.70;63.90
27671;DHT22;15077;49.704;9.908;2024-02-23T02:42:58;10.70;63.90
27671;DHT22;15077;49.704;9.908;2024-02-23T02:45:24;10.60;64.20
27671;DHT22;15077;49.704;9.908;2024-02-23T02:47:50;10.60;64.40
27671;DHT22;15077;49.704;9.908;2024-02-23T02:50:15;10.60;64.50
27671;DHT22;15077;49.704;9.908;2024-02-23T02:52:41;10.60;64.70
27671;DHT22;15077;49.704;9.908;2024-02-23T02:55:07;10.50;64.70
27671;DHT22;15077;49.704;9.908;2024-02-23T02:57:33;10.50;64.80
27671;DHT22;15077;49.704;9.908;2024-02-23T03:00:01;10.50;64.80
27671;DHT22;15077;49.704;9.908;2024-02-23T03:02:33;10.50;64.90
27671;DHT22;15077;49.704;9.908;2024-02-23T03:05:00;10.50;64.90
27671;DHT22;15077;49.704;9.908;2024-02-23T03:07:25;10.50;65.00
27671;DHT22;15077;49.704;9.908;2024-02-23T03:09:51;10.50;65.00
27671;DHT22;15077;49.704;9.908;2024-02-23T03:12:16;10.50;65.00
27671;DHT22;15077;49.704;9.908;2024-02-23T03:14:43;10.50;65.00
27671;DHT22;15077;49.704;9.908;2024-02-23T03:17:09;10.50;65.00
27671;DHT22;15077;49.704;9.908;2024-02-23T03:19:35;10.50;64.70
27671;DHT22;15077;49.704;9.908;2024-02-23T03:22:01;10.50;64.90
27671;DHT22;15077;49.704;9.908;2024-02-23T03:24:27;10.50;65.10
27671;DHT22;15077;49.704;9.908;2024-02-23T03:26:53;10.50;65.10
27671;DHT22;15077;49.704;9.908;2024-02-23T03:29:18;10.40;64.90
27671;DHT22;15077;49.704;9.908;2024-02-23T03:31:44;10.40;64.90
27671;DHT22;15077;49.704;9.908;2024-02-23T03:34:09;10.20;64.80
27671;DHT22;15077;49.704;9.908;2024-02-23T03:36:36;10.10;64.90
27671;DHT22;15077;49.704;9.908;2024-02-23T03:39:02;10.00;64.90
27671;DHT22;15077;49.704;9.908;2024-02-23T03:41:28;9.90;64.80
27671;DHT22;15077;49.704;9.908;2024-02-23T03:43:53;9.90;65.20
27671;DHT22;15077;49.704;9.908;2024-02-23T03:46:19;9.80;65.20
27671;DHT22;15077;49.704;9.908;2024-02-23T03:48:45;9.80;65.30
27671;DHT22;15077;49.704;9.908;2024-02-23T03:51:11;9.70;65.40
27671;DHT22;15077;49.704;9.908;2024-02-23T03:53:36;9.70;66.20
27671;DHT22;15077;49.704;9.908;2024-02-23T03:56:02;9.60;65.70
27671;DHT22;15077;49.704;9.908;2024-02-23T03:58:28;9.60;65.70
27671;DHT22;15077;49.704;9.908;2024-02-23T04:00:54;9.60;65.80
27671;DHT22;15077;49.704;9.908;2024-02-23T04:03:20;9.60;65.90
27671;DHT22;15077;49.704;9.908;2024-02-23T04:05:45;9.50;65.80
27671;DHT22;15077;49.704;9.908;2024-02-23T04:08:11;9.50;65.90
27671;DHT22;15077;49.704;9.908;2024-02-23T04:10:44;9.50;66.00
27671;DHT22;15077;49.704;9.908;2024-02-23T04:13:10;9.50;66.00
27671;DHT22;15077;49.704;9.908;2024-02-23T04:15:39;9.40;65.90
27671;DHT22;15077;49.704;9.908;2024-02-23T04:18:05;9.40;66.00
27671;DHT22;15077;49.704;9.908;2024-02-23T04:20:31;9.40;66.00
27671;DHT22;15077;49.704;9.908;2024-02-23T04:22:57;9.40;66.00
27671;DHT22;15077;49.704;9.908;2024-02-23T04:25:23;9.30;65.90
27671;DHT22;15077;49.704;9.908;2024-02-23T04:27:48;9.30;66.00
27671;DHT22;15077;49.704;9.908;2024-02-23T04:30:14;9.30;66.00
27671;DHT22;15077;49.704;9.908;2024-02-23T04:32:44;9.30;66.00
27671;DHT22;15077;49.704;9.908;2024-02-23T04:35:10;9.30;66.00
27671;DHT22;15077;49.704;9.908;2024-02-23T04:37:36;9.30;66.00
27671;DHT22;15077;49.704;9.908;2024-02-23T04:40:01;9.30;66.00
27671;DHT22;15077;49.704;9.908;2024-02-23T04:42:27;9.30;66.10
27671;DHT22;15077;49.704;9.908;2024-02-23T04:44:53;9.20;66.00
27671;DHT22;15077;49.704;9.908;2024-02-23T04:47:20;9.30;66.20
27671;DHT22;15077;49.704;9.908;2024-02-23T04:49:46;9.20;66.10
27671;DHT22;15077;49.704;9.908;2024-02-23T04:52:12;9.20;66.10
27671;DHT22;15077;49.704;9.908;2024-02-23T04:54:37;9.30;66.20
27671;DHT22;15077;49.704;9.908;2024-02-23T04:57:03;9.20;66.20
27671;DHT22;15077;49.704;9.908;2024-02-23T04:59:28;9.30;66.20
27671;DHT22;15077;49.704;9.908;2024-02-23T05:01:56;9.30;66.20
27671;DHT22;15077;49.704;9.908;2024-02-23T05:04:22;9.30;66.20
27671;DHT22;15077;49.704;9.908;2024-02-23T05:06:48;9.30;66.20
27671;DHT22;15077;49.704;9.908;2024-02-23T05:09:14;9.30;66.30
27671;DHT22;15077;49.704;9.908;2024-02-23T05:11:39;9.30;66.20
27671;DHT22;15077;49.704;9.908;2024-02-23T05:14:05;9.30;66.20
27671;DHT22;15077;49.704;9.908;2024-02-23T05:16:31;9.30;66.20
27671;DHT22;15077;49.704;9.908;2024-02-23T05:18:57;9.30;66.20
27671;DHT22;15077;49.704;9.908;2024-02-23T05:21:22;9.40;66.30
27671;DHT22;15077;49.704;9.908;2024-02-23T05:23:48;9.40;66.30
27671;DHT22;15077;49.704;9.908;2024-02-23T05:26:14;9.40;66.30
27671;DHT22;15077;49.704;9.908;2024-02-23T05:28:39;9.40;66.30
27671;DHT22;15077;49.704;9.908;2024-02-23T05:31:05;9.40;66.30
27671;DHT22;15077;49.704;9.908;2024-02-23T05:33:31;9.40;66.30
27671;DHT22;15077;49.704;9.908;2024-02-23T05:35:56;9.40;66.30
27671;DHT22;15077;49.704;9.908;2024-02-23T05:38:22;9.40;66.30
27671;DHT22;15077;49.704;9.908;2024-02-23T05:40:47;9.40;66.30
27671;DHT22;15077;49.704;9.908;2024-02-23T05:43:13;9.50;66.40
27671;DHT22;15077;49.704;9.908;2024-02-23T05:45:39;9.50;66.50
27671;DHT22;15077;49.704;9.908;2024-02-23T05:48:05;9.50;66.40
27671;DHT22;15077;49.704;9.908;2024-02-23T05:50:32;9.50;67.10
27671;DHT22;15077;49.704;9.908;2024-02-23T05:52:57;9.60;66.50
27671;DHT22;15077;49.704;9.908;2024-02-23T05:55:23;9.60;66.60
27671;DHT22;15077;49.704;9.908;2024-02-23T05:57:49;9.60;66.60
27671;DHT22;15077;49.704;9.908;2024-02-23T06:00:16;9.60;66.50
27671;DHT22;15077;49.704;9.908;2024-02-23T06:02:44;9.70;66.60
27671;DHT22;15077;49.704;9.908;2024-02-23T06:05:11;9.70;66.50
27671;DHT22;15077;49.704;9.908;2024-02-23T06:07:37;9.70;66.30
27671;DHT22;15077;49.704;9.908;2024-02-23T06:10:03;9.70;66.30
27671;DHT22;15077;49.704;9.908;2024-02-23T06:12:29;9.70;66.20
27671;DHT22;15077;49.704;9.908;2024-02-23T06:14:54;9.60;66.20
27671;DHT22;15077;49.704;9.908;2024-02-23T06:17:22;9.60;66.30
27671;DHT22;15077;49.704;9.908;2024-02-23T06:19:48;9.60;66.40
27671;DHT22;15077;49.704;9.908;2024-02-23T06:22:14;9.60;66.40
27671;DHT22;15077;49.704;9.908;2024-02-23T06:24:42;9.60;66.40
27671;DHT22;15077;49.704;9.908;2024-02-23T06:27:08;9.60;66.40
27671;DHT22;15077;49.704;9.908;2024-02-23T06:29:33;9.60;66.50
27671;DHT22;15077;49.704;9.908;2024-02-23T06:31:59;9.50;66.50
27671;DHT22;15077;49.704;9.908;2024-02-23T06:34:26;9.50;66.60
27671;DHT22;15077;49.704;9.908;2024-02-23T06:36:52;9.50;66.60
27671;DHT22;15077;49.704;9.908;2024-02-23T06:39:18;9.50;66.60
27671;DHT22;15077;49.704;9.908;2024-02-23T06:41:45;9.40;66.60
27671;DHT22;15077;49.704;9.908;2024-02-23T06:44:11;9.40;66.60
27671;DHT22;15077;49.704;9.908;2024-02-23T06:46:36;9.40;66.80
27671;DHT22;15077;49.704;9.908;2024-02-23T06:49:02;9.30;66.80
27671;DHT22;15077;49.704;9.908;2024-02-23T06:51:31;9.20;66.90
27671;DHT22;15077;49.704;9.908;2024-02-23T06:53:57;9.20;66.80
27671;DHT22;15077;49.704;9.908;2024-02-23T06:56:23;9.10;66.80
27671;DHT22;15077;49.704;9.908;2024-02-23T06:58:48;9.10;66.80
27671;DHT22;15077;49.704;9.908;2024-02-23T07:01:14;9.10;66.80
27671;DHT22;15077;49.704;9.908;2024-02-23T07:03:40;9.10;66.80
27671;DHT22;15077;49.704;9.908;2024-02-23T07:06:08;9.10;66.80
27671;DHT22;15077;49.704;9.908;2024-02-23T07:08:35;9.00;66.70
27671;DHT22;15077;49.704;9.908;2024-02-23T07:11:01;9.00;66.60
27671;DHT22;15077;49.704;9.908;2024-02-23T07:13:27;9.00;66.60
27671;DHT22;15077;49.704;9.908;2024-02-23T07:15:52;9.00;66.50
27671;DHT22;15077;49.704;9.908;2024-02-23T07:18:18;9.00;66.50
27671;DHT22;15077;49.704;9.908;2024-02-23T07:20:44;9.00;66.50
27671;DHT22;15077;49.704;9.908;2024-02-23T07:23:10;9.00;66.50
27671;DHT22;15077;49.704;9.908;2024-02-23T07:25:35;9.00;66.40
27671;DHT22;15077;49.704;9.908;2024-02-23T07:28:01;8.90;66.30
27671;DHT22;15077;49.704;9.908;2024-02-23T07:30:26;8.90;66.20
27671;DHT22;15077;49.704;9.908;2024-02-23T07:32:52;8.90;66.20
27671;DHT22;15077;49.704;9.908;2024-02-23T07:35:18;8.90;66.00
27671;DHT22;15077;49.704;9.908;2024-02-23T07:37:43;8.90;65.80
27671;DHT22;15077;49.704;9.908;2024-02-23T07:40:09;8.90;65.80
27671;DHT22;15077;49.704;9.908;2024-02-23T07:42:35;8.90;65.70
27671;DHT22;15077;49.704;9.908;2024-02-23T07:45:02;8.90;65.80
27671;DHT22;15077;49.704;9.908;2024-02-23T07:47:30;8.90;65.80
27671;DHT22;15077;49.704;9.908;2024-02-23T07:49:56;8.90;65.60
27671;DHT22;15077;49.704;9.908;2024-02-23T07:52:22;8.90;65.70
27671;DHT22;15077;49.704;9.908;2024-02-23T07:54:53;8.90;65.90
27671;DHT22;15077;49.704;9.908;2024-02-23T07:57:19;8.90;65.80
27671;DHT22;15077;49.704;9.908;2024-02-23T07:59:45;9.00;65.90
27671;DHT22;15077;49.704;9.908;2024-02-23T08:02:12;9.00;65.80
27671;DHT22;15077;49.704;9.908;2024-02-23T08:04:37;9.00;65.80
27671;DHT22;15077;49.704;9.908;2024-02-23T08:07:04;9.00;65.60
27671;DHT22;15077;49.704;9.908;2024-02-23T08:09:29;9.00;65.60
27671;DHT22;15077;49.704;9.908;2024-02-23T08:11:55;9.00;65.10
27671;DHT22;15077;49.704;9.908;2024-02-23T08:14:21;9.00;65.40
27671;DHT22;15077;49.704;9.908;2024-02-23T08:16:46;9.10;65.40
27671;DHT22;15077;49.704;9.908;2024-02-23T08:19:12;9.10;65.40
27671;DHT22;15077;49.704;9.908;2024-02-23T08:21:38;9.10;65.40
27671;DHT22;15077;49.704;9.908;2024-02-23T08:24:04;9.10;65.00
27671;DHT22;15077;49.704;9.908;2024-02-23T08:26:30;9.10;65.30
27671;DHT22;15077;49.704;9.908;2024-02-23T08:28:56;9.20;65.10
27671;DHT22;15077;49.704;9.908;2024-02-23T08:31:21;9.20;65.30
27671;DHT22;15077;49.704;9.908;2024-02-23T08:33:47;9.20;65.20
27671;DHT22;15077;49.704;9.908;2024-02-23T08:36:13;9.30;65.10
27671;DHT22;15077;49.704;9.908;2024-02-23T08:38:38;9.30;65.20
27671;DHT22;15077;49.704;9.908;2024-02-23T08:41:04;9.30;65.20
27671;DHT22;15077;49.704;9.908;2024-02-23T08:43:29;9.40;65.10
27671;DHT22;15077;49.704;9.908;2024-02-23T08:45:55;9.40;65.20
27671;DHT22;15077;49.704;9.908;2024-02-23T08:48:21;9.40;65.20
27671;DHT22;15077;49.704;9.908;2024-02-23T08:50:46;9.40;64.50
27671;DHT22;15077;49.704;9.908;2024-02-23T08:53:12;9.40;64.70
27671;DHT22;15077;49.704;9.908;2024-02-23T08:55:38;9.50;64.70
27671;DHT22;15077;49.704;9.908;2024-02-23T08:58:03;9.50;64.70
27671;DHT22;15077;49.704;9.908;2024-02-23T09:00:31;9.50;64.40
27671;DHT22;15077;49.704;9.908;2024-02-23T09:02:57;9.50;64.00
27671;DHT22;15077;49.704;9.908;2024-02-23T09:05:22;9.50;64.00
27671;DHT22;15077;49.704;9.908;2024-02-23T09:07:48;9.50;63.10
27671;DHT22;15077;49.704;9.908;2024-02-23T09:10:14;9.50;63.60
27671;DHT22;15077;49.704;9.908;2024-02-23T09:12:39;9.50;63.50
27671;DHT22;15077;49.704;9.908;2024-02-23T09:15:05;9.50;63.00
27671;DHT22;15077;49.704;9.908;2024-02-23T09:17:31;9.50;62.80
27671;DHT22;15077;49.704;9.908;2024-02-23T09:19:57;9.50;62.70
27671;DHT22;15077;49.704;9.908;2024-02-23T09:22:23;9.50;62.30
27671;DHT22;15077;49.704;9.908;2024-02-23T09:24:49;9.50;63.20
27671;DHT22;15077;49.704;9.908;2024-02-23T09:27:14;9.50;63.30
27671;DHT22;15077;49.704;9.908;2024-02-23T09:29:40;9.60;63.30
27671;DHT22;15077;49.704;9.908;2024-02-23T09:32:09;9.60;63.30
27671;DHT22;15077;49.704;9.908;2024-02-23T09:34:34;9.60;62.40
27671;DHT22;15077;49.704;9.908;2024-02-23T09:37:00;9.60;63.20
27671;DHT22;15077;49.704;9.908;2024-02-23T09:39:26;9.60;62.70
27671;DHT22;15077;49.704;9.908;2024-02-23T09:41:55;9.60;62.60
27671;DHT22;15077;49.704;9.908;2024-02-23T09:44:26;9.70;62.90
27671;DHT22;15077;49.704;9.908;2024-02-23T09:46:59;9.70;62.90
27671;DHT22;15077;49.704;9.908;2024-02-23T09:49:34;9.70;62.70
27671;DHT22;15077;49.704;9.908;2024-02-23T09:52:04;9.70;62.40
27671;DHT22;15077;49.704;9.908;2024-02-23T09:54:33;9.70;62.70
27671;DHT22;15077;49.704;9.908;2024-02-23T09:56:59;9.70;62.10
27671;DHT22;15077;49.704;9.908;2024-02-23T09:59:28;9.70;61.50
27671;DHT22;15077;49.704;9.908;2024-02-23T10:01:56;9.70;61.90
27671;DHT22;15077;49.704;9.908;2024-02-23T10:04:22;9.70;62.20
27671;DHT22;15077;49.704;9.908;2024-02-23T10:06:50;9.70;62.30
27671;DHT22;15077;49.704;9.908;2024-02-23T10:09:16;9.70;62.50
27671;DHT22;15077;49.704;9.908;2024-02-23T10:11:41;9.70;62.50
27671;DHT22;15077;49.704;9.908;2024-02-23T10:14:07;9.70;61.90
27671;DHT22;15077;49.704;9.908;2024-02-23T10:16:33;9.70;62.40
27671;DHT22;15077;49.704;9.908;2024-02-23T10:18:59;9.80;62.60
27671;DHT22;15077;49.704;9.908;2024-02-23T10:21:24;9.80;62.80
27671;DHT22;15077;49.704;9.908;2024-02-23T10:23:50;9.80;61.80
27671;DHT22;15077;49.704;9.908;2024-02-23T10:26:17;9.80;62.00
27671;DHT22;15077;49.704;9.908;2024-02-23T10:28:44;9.80;62.10
27671;DHT22;15077;49.704;9.908;2024-02-23T10:31:12;9.90;62.50
27671;DHT22;15077;49.704;9.908;2024-02-23T10:33:38;9.90;62.10
27671;DHT22;15077;49.704;9.908;2024-02-23T10:36:04;9.90;61.90
27671;DHT22;15077;49.704;9.908;2024-02-23T10:38:32;9.90;61.50
27671;DHT22;15077;49.704;9.908;2024-02-23T10:40:58;9.90;61.20
27671;DHT22;15077;49.704;9.908;2024-02-23T10:43:27;9.90;61.70
27671;DHT22;15077;49.704;9.908;2024-02-23T10:46:10;9.90;62.20
27671;DHT22;15077;49.704;9.908;2024-02-23T10:48:41;10.00;62.40
27671;DHT22;15077;49.704;9.908;2024-02-23T10:51:08;10.00;62.20
27671;DHT22;15077;49.704;9.908;2024-02-23T10:53:36;10.00;61.70
27671;DHT22;15077;49.704;9.908;2024-02-23T10:56:02;10.10;61.70
27671;DHT22;15077;49.704;9.908;2024-02-23T10:58:29;10.10;61.10
27671;DHT22;15077;49.704;9.908;2024-02-23T11:00:59;10.20;60.90
27671;DHT22;15077;49.704;9.908;2024-02-23T11:03:27;10.20;61.60
27671;DHT22;15077;49.704;9.908;2024-02-23T11:06:01;10.30;61.30
27671;DHT22;15077;49.704;9.908;2024-02-23T11:08:28;10.30;60.60
27671;DHT22;15077;49.704;9.908;2024-02-23T11:10:54;10.30;60.30
27671;DHT22;15077;49.704;9.908;2024-02-23T11:13:29;10.40;59.90
27671;DHT22;15077;49.704;9.908;2024-02-23T11:16:03;10.40;59.40
27671;DHT22;15077;49.704;9.908;2024-02-23T11:18:30;10.40;59.60
27671;DHT22;15077;49.704;9.908;2024-02-23T11:21:01;10.40;60.20
27671;DHT22;15077;49.704;9.908;2024-02-23T11:26:18;10.50;60.40
27671;DHT22;15077;49.704;9.908;2024-02-23T11:31:22;10.60;60.60
27671;DHT22;15077;49.704;9.908;2024-02-23T11:33:50;10.60;60.30
27671;DHT22;15077;49.704;9.908;2024-02-23T11:36:34;10.60;60.50
27671;DHT22;15077;49.704;9.908;2024-02-23T11:39:01;10.70;60.40
27671;DHT22;15077;49.704;9.908;2024-02-23T11:41:28;10.70;59.00
27671;DHT22;15077;49.704;9.908;2024-02-23T11:43:55;10.70;59.30
27671;DHT22;15077;49.704;9.908;2024-02-23T11:46:24;10.70;60.00
27671;DHT22;15077;49.704;9.908;2024-02-23T11:48:49;10.80;59.80
27671;DHT22;15077;49.704;9.908;2024-02-23T11:51:22;10.80;59.70
27671;DHT22;15077;49.704;9.908;2024-02-23T11:53:48;10.80;59.20
27671;DHT22;15077;49.704;9.908;2024-02-23T11:56:14;10.80;59.20
27671;DHT22;15077;49.704;9.908;2024-02-23T11:58:41;10.80;60.40
27671;DHT22;15077;49.704;9.908;2024-02-23T12:01:07;10.80;60.00
27671;DHT22;15077;49.704;9.908;2024-02-23T12:03:33;10.90;60.50
27671;DHT22;15077;49.704;9.908;2024-02-23T12:06:02;10.90;59.90
27671;DHT22;15077;49.704;9.908;2024-02-23T12:08:31;10.90;58.80
27671;DHT22;15077;49.704;9.908;2024-02-23T12:11:03;10.90;58.70
27671;DHT22;15077;49.704;9.908;2024-02-23T12:13:30;10.90;59.00
27671;DHT22;15077;49.704;9.908;2024-02-23T12:15:56;10.90;59.10
27671;DHT22;15077;49.704;9.908;2024-02-23T12:18:22;10.90;58.90
27671;DHT22;15077;49.704;9.908;2024-02-23T12:20:52;10.90;59.40
27671;DHT22;15077;49.704;9.908;2024-02-23T12:23:17;10.90;59.10
27671;DHT22;15077;49.704;9.908;2024-02-23T12:25:53;10.90;59.00
27671;DHT22;15077;49.704;9.908;2024-02-23T12:28:20;10.90;58.80
27671;DHT22;15077;49.704;9.908;2024-02-23T12:30:45;10.90;59.30
27671;DHT22;15077;49.704;9.908;2024-02-23T12:33:12;10.90;59.30
27671;DHT22;15077;49.704;9.908;2024-02-23T12:35:41;10.90;58.40
27671;DHT22;15077;49.704;9.908;2024-02-23T12:38:07;10.90;58.60
27671;DHT22;15077;49.704;9.908;2024-02-23T12:40:32;10.90;58.10
27671;DHT22;15077;49.704;9.908;2024-02-23T12:42:58;10.80;58.60
27671;DHT22;15077;49.704;9.908;2024-02-23T12:45:23;10.80;59.00
27671;DHT22;15077;49.704;9.908;2024-02-23T12:47:49;10.90;59.70
27671;DHT22;15077;49.704;9.908;2024-02-23T12:50:15;10.90;59.80
27671;DHT22;15077;49.704;9.908;2024-02-23T12:52:40;10.90;59.60
27671;DHT22;15077;49.704;9.908;2024-02-23T12:55:06;11.00;59.20
27671;DHT22;15077;49.704;9.908;2024-02-23T12:57:33;11.00;59.20
27671;DHT22;15077;49.704;9.908;2024-02-23T12:59:59;11.00;59.70
27671;DHT22;15077;49.704;9.908;2024-02-23T13:02:24;11.00;59.20
27671;DHT22;15077;49.704;9.908;2024-02-23T13:04:50;11.00;59.40
27671;DHT22;15077;49.704;9.908;2024-02-23T13:07:16;11.10;59.90
27671;DHT22;15077;49.704;9.908;2024-02-23T13:09:42;11.10;60.00
27671;DHT22;15077;49.704;9.908;2024-02-23T13:12:08;11.10;59.50
27671;DHT22;15077;49.704;9.908;2024-02-23T13:14:33;11.10;59.60
27671;DHT22;15077;49.704;9.908;2024-02-23T13:16:59;11.10;59.50
27671;DHT22;15077;49.704;9.908;2024-02-23T13:19:25;11.20;59.40
27671;DHT22;15077;49.704;9.908;2024-02-23T13:21:50;11.20;59.20
27671;DHT22;15077;49.704;9.908;2024-02-23T13:24:16;11.20;59.60
27671;DHT22;15077;49.704;9.908;2024-02-23T13:26:41;11.20;59.50
27671;DHT22;15077;49.704;9.908;2024-02-23T13:29:07;11.20;59.80
27671;DHT22;15077;49.704;9.908;2024-02-23T13:31:33;11.30;59.30
27671;DHT22;15077;49.704;9.908;2024-02-23T13:33:58;11.30;59.10
27671;DHT22;15077;49.704;9.908;2024-02-23T13:36:24;11.30;59.50
27671;DHT22;15077;49.704;9.908;2024-02-23T13:38:49;11.30;58.40
27671;DHT22;15077;49.704;9.908;2024-02-23T13:41:16;11.30;58.30
27671;DHT22;15077;49.704;9.908;2024-02-23T13:43:45;11.30;58.50
27671;DHT22;15077;49.704;9.908;2024-02-23T13:46:10;11.30;59.20
27671;DHT22;15077;49.704;9.908;2024-02-23T13:48:36;11.30;59.10
27671;DHT22;15077;49.704;9.908;2024-02-23T13:51:02;11.30;58.90
27671;DHT22;15077;49.704;9.908;2024-02-23T13:53:30;11.30;58.80
27671;DHT22;15077;49.704;9.908;2024-02-23T13:55:56;11.30;58.80
27671;DHT22;15077;49.704;9.908;2024-02-23T13:58:22;11.30;58.30
27671;DHT22;15077;49.704;9.908;2024-02-23T14:00:48;11.30;57.90
27671;DHT22;15077;49.704;9.908;2024-02-23T14:03:15;11.30;58.80
27671;DHT22;15077;49.704;9.908;2024-02-23T14:05:46;11.30;58.20
27671;DHT22;15077;49.704;9.908;2024-02-23T14:08:12;11.30;58.60
27671;DHT22;15077;49.704;9.908;2024-02-23T14:10:38;11.30;58.60
27671;DHT22;15077;49.704;9.908;2024-02-23T14:13:05;11.30;59.10
27671;DHT22;15077;49.704;9.908;2024-02-23T14:15:31;11.30;59.10
27671;DHT22;15077;49.704;9.908;2024-02-23T14:17:57;11.40;58.90
27671;DHT22;15077;49.704;9.908;2024-02-23T14:20:23;11.40;58.80
27671;DHT22;15077;49.704;9.908;2024-02-23T14:22:48;11.40;59.00
27671;DHT22;15077;49.704;9.908;2024-02-23T14:25:15;11.40;59.10
27671;DHT22;15077;49.704;9.908;2024-02-23T14:27:41;11.40;59.30
27671;DHT22;15077;49.704;9.908;2024-02-23T14:30:07;11.40;59.50
27671;DHT22;15077;49.704;9.908;2024-02-23T14:32:33;11.50;59.30
27671;DHT22;15077;49.704;9.908;2024-02-23T14:35:01;11.50;59.10
27671;DHT22;15077;49.704;9.908;2024-02-23T14:37:28;11.50;58.80
27671;DHT22;15077;49.704;9.908;2024-02-23T14:39:54;11.60;59.10
27671;DHT22;15077;49.704;9.908;2024-02-23T14:42:20;11.60;59.20
27671;DHT22;15077;49.704;9.908;2024-02-23T14:44:45;11.60;58.60
27671;DHT22;15077;49.704;9.908;2024-02-23T14:47:11;11.60;58.70
27671;DHT22;15077;49.704;9.908;2024-02-23T14:49:38;11.60;59.00
27671;DHT22;15077;49.704;9.908;2024-02-23T14:52:04;11.60;59.20
27671;DHT22;15077;49.704;9.908;2024-02-23T14:54:30;11.70;58.80
27671;DHT22;15077;49.704;9.908;2024-02-23T14:56:55;11.70;59.00
27671;DHT22;15077;49.704;9.908;2024-02-23T14:59:21;11.70;58.50
27671;DHT22;15077;49.704;9.908;2024-02-23T15:01:47;11.70;58.00
27671;DHT22;15077;49.704;9.908;2024-02-23T15:04:12;11.70;58.00
27671;DHT22;15077;49.704;9.908;2024-02-23T15:06:38;11.70;58.50
27671;DHT22;15077;49.704;9.908;2024-02-23T15:09:04;11.70;58.60
27671;DHT22;15077;49.704;9.908;2024-02-23T15:11:30;11.70;58.50
27671;DHT22;15077;49.704;9.908;2024-02-23T15:13:56;11.70;58.60
27671;DHT22;15077;49.704;9.908;2024-02-23T15:16:28;11.70;58.70
27671;DHT22;15077;49.704;9.908;2024-02-23T15:18:57;11.70;58.80
27671;DHT22;15077;49.704;9.908;2024-02-23T15:21:24;11.70;58.60
27671;DHT22;15077;49.704;9.908;2024-02-23T15:23:50;11.70;58.70
27671;DHT22;15077;49.704;9.908;2024-02-23T15:26:15;11.70;59.10
27671;DHT22;15077;49.704;9.908;2024-02-23T15:28:41;11.70;58.30
27671;DHT22;15077;49.704;9.908;2024-02-23T15:31:07;11.70;58.40
27671;DHT22;15077;49.704;9.908;2024-02-23T15:33:33;11.70;58.30
27671;DHT22;15077;49.704;9.908;2024-02-23T15:36:01;11.70;58.50
27671;DHT22;15077;49.704;9.908;2024-02-23T15:38:29;11.70;58.60